West Poplarville, Mississippi
Current Conditions -  °F | °C
As of 4:55 PM on Wednesday 22 Oct 2014 (Local Time) from KBXA Reporting Station
Clear Clear  
Wind Chill: 79°   Ceiling: Unl
Heat Index: 79°   Visibility: 10mi
Dew Point: 47°   Wind: 8mph
Humidity: 32%   Direction: 20°NNE
Pressure: 30.05"   Gusts: NA
Location:  30.8781°N, 89.5858°W
Report Text: KBXA 222155Z AUTO 02007KT 10SM CLR 26/08 A3005 RMK AO2 T02600082
Loading
Personal Weather Stations






























Interactive Weather Map New forecast layout! Learn more

10-Day Weather Forecast

Advertisements
Track Severe Weather on mobile